createdAt,value
2023-03-27T00:02:05.005Z,99532.34
2023-03-27T00:07:07.615Z,99543.91
2023-03-27T00:12:08.964Z,99554.09
2023-03-27T00:17:10.996Z,99568.66
2023-03-27T00:22:12.868Z,99571.56
2023-03-27T00:27:14.417Z,99576.25
2023-03-27T00:32:15.942Z,99591.50
2023-03-27T00:37:17.981Z,99604.22
2023-03-27T00:42:22.835Z,99606.91
2023-03-27T00:47:37.191Z,99622.13
2023-03-27T00:52:42.324Z,99642.81
2023-03-27T00:57:48.896Z,99654.84
2023-03-27T01:02:51.275Z,99663.53
2023-03-27T01:08:00.009Z,99693.91
2023-03-27T01:13:16.176Z,99709.41
2023-03-27T01:18:35.699Z,99720.06
2023-03-27T01:24:00.565Z,99730.50
2023-03-27T01:29:35.897Z,99739.28
2023-03-27T01:34:42.547Z,99755.63
2023-03-27T01:40:00.215Z,99767.63
2023-03-27T01:45:05.215Z,99774.41
2023-03-27T01:50:20.884Z,99787.69
2023-03-27T01:55:28.111Z,99785.41
2023-03-27T02:00:50.823Z,99780.66
2023-03-27T02:06:14.357Z,99806.88
2023-03-27T02:11:16.334Z,99821.31
2023-03-27T02:16:22.478Z,99830.28
2023-03-27T02:21:24.206Z,99836.13
2023-03-27T02:26:25.673Z,99830.13
2023-03-27T02:31:48.453Z,99838.81
2023-03-27T02:37:05.275Z,99858.00
2023-03-27T02:42:06.616Z,99862.16
2023-03-27T02:47:16.389Z,99877.69
2023-03-27T02:52:26.676Z,99896.31
2023-03-27T02:57:31.713Z,99910.31
2023-03-27T03:02:34.073Z,99922.13
2023-03-27T03:07:38.024Z,99937.28
2023-03-27T03:12:39.632Z,99936.03
2023-03-27T03:17:41.074Z,99950.41
2023-03-27T03:22:42.812Z,99951.56
2023-03-27T03:27:44.228Z,99968.38
2023-03-27T03:32:47.159Z,99987.59
2023-03-27T03:37:51.119Z,100000.91
2023-03-27T03:42:52.941Z,100009.38
2023-03-27T03:47:54.359Z,100018.50
2023-03-27T03:52:55.829Z,100034.16
2023-03-27T03:57:58.461Z,100037.97
2023-03-27T04:02:59.942Z,100053.13
2023-03-27T04:08:02.674Z,100061.66
2023-03-27T04:13:04.143Z,100078.31
2023-03-27T04:18:05.612Z,100080.88
2023-03-27T04:23:08.144Z,100099.38
2023-03-27T04:28:10.246Z,100103.72
2023-03-27T04:33:18.318Z,100116.44
2023-03-27T04:38:19.824Z,100139.13
2023-03-27T04:43:25.913Z,100142.78
2023-03-27T04:48:27.385Z,100150.38
2023-03-27T04:53:30.937Z,100151.47
2023-03-27T04:58:35.122Z,100168.44
2023-03-27T05:03:40.284Z,100195.34
2023-03-27T05:08:41.681Z,100203.31
2023-03-27T05:13:43.021Z,100202.34
2023-03-27T05:18:45.124Z,100209.34
2023-03-27T05:23:46.505Z,100217.06
2023-03-27T05:28:47.881Z,100222.38
2023-03-27T05:33:49.217Z,100239.06
2023-03-27T05:38:53.015Z,100262.31
2023-03-27T05:43:54.358Z,100261.31
2023-03-27T05:48:55.899Z,100270.31
2023-03-27T05:53:57.319Z,100280.25
2023-03-27T05:58:58.667Z,100286.00
2023-03-27T06:04:00.096Z,100299.59
2023-03-27T06:09:01.774Z,100303.94
2023-03-27T06:14:04.018Z,100306.47
2023-03-27T06:19:05.419Z,100321.88
2023-03-27T06:24:07.590Z,100333.94
2023-03-27T06:29:08.964Z,100355.69
2023-03-27T06:34:10.954Z,100359.47
2023-03-27T06:39:12.339Z,100375.28
2023-03-27T06:44:13.798Z,100385.69
2023-03-27T06:49:15.786Z,100399.00
2023-03-27T06:54:17.112Z,100395.78
2023-03-27T06:59:18.433Z,100399.84
2023-03-27T07:04:19.792Z,100416.66
2023-03-27T07:09:21.130Z,100425.91
2023-03-27T07:14:24.131Z,100431.69
2023-03-27T07:19:25.500Z,100434.28
2023-03-27T07:24:26.918Z,100451.31
2023-03-27T07:29:28.320Z,100456.34
2023-03-27T07:34:29.871Z,100473.00
2023-03-27T07:39:31.605Z,100473.56
2023-03-27T07:44:32.968Z,100488.00
2023-03-27T07:49:39.489Z,100492.44
2023-03-27T07:54:42.932Z,100495.41
2023-03-27T07:59:45.340Z,100499.47
2023-03-27T08:04:46.982Z,100499.94
2023-03-27T08:09:48.563Z,100510.41
2023-03-27T08:14:49.966Z,100516.97
2023-03-27T08:19:51.343Z,100517.09
2023-03-27T08:24:52.874Z,100522.69
2023-03-27T08:29:54.210Z,100531.06
2023-03-27T08:34:56.455Z,100543.34
2023-03-27T08:39:58.828Z,100556.53
2023-03-27T08:45:08.668Z,100561.34
2023-03-27T08:50:33.947Z,100559.91
2023-03-27T08:55:41.482Z,100554.38
2023-03-27T09:00:43.134Z,100555.66
2023-03-27T09:05:54.561Z,100556.81
2023-03-27T09:11:09.259Z,100561.00
2023-03-27T09:16:19.546Z,100565.84
2023-03-27T09:21:31.239Z,100579.84
2023-03-27T09:26:35.909Z,100567.50
2023-03-27T09:31:53.018Z,100567.28
2023-03-27T09:36:56.050Z,100564.50
2023-03-27T09:42:07.109Z,100559.31
2023-03-27T09:47:20.515Z,100568.84
2023-03-27T09:52:37.764Z,100589.41
2023-03-27T09:57:40.231Z,100586.81
2023-03-27T10:02:41.635Z,100597.50
2023-03-27T10:07:44.254Z,100587.69
2023-03-27T10:12:51.798Z,100574.50
2023-03-27T10:17:53.197Z,100576.09
2023-03-27T10:23:03.262Z,100583.44
2023-03-27T10:28:16.342Z,100589.78
2023-03-27T10:33:41.143Z,100590.63
2023-03-27T10:38:43.954Z,100589.16
2023-03-27T10:43:48.134Z,100599.59
2023-03-27T10:49:02.267Z,100602.63
2023-03-27T10:54:16.806Z,100597.84
2023-03-27T10:59:38.385Z,100600.41
2023-03-27T11:05:04.656Z,100602.03
2023-03-27T11:10:22.167Z,100623.63
2023-03-27T11:15:28.833Z,100630.09
2023-03-27T11:20:59.582Z,100631.72
2023-03-27T11:26:05.911Z,100635.78
2023-03-27T11:31:38.008Z,100658.44
2023-03-27T11:36:48.314Z,100669.34
2023-03-27T11:41:57.152Z,100671.72
2023-03-27T11:47:07.356Z,100700.59
2023-03-27T11:52:22.092Z,100692.69
2023-03-27T11:57:26.258Z,100678.69
2023-03-27T12:03:06.818Z,100704.13
2023-03-27T12:08:34.294Z,100704.91
2023-03-27T12:14:02.203Z,100696.47
2023-03-27T12:19:29.810Z,100687.34
2023-03-27T12:24:57.227Z,100684.50
2023-03-27T12:30:14.867Z,100678.75
2023-03-27T12:35:21.370Z,100658.41
2023-03-27T12:40:37.757Z,100652.72
2023-03-27T12:46:03.380Z,100656.63
2023-03-27T12:51:13.654Z,100649.19
2023-03-27T12:56:16.162Z,100655.19
2023-03-27T13:01:51.822Z,100653.91
2023-03-27T13:07:38.039Z,100657.41
2023-03-27T13:12:53.633Z,100656.13
2023-03-27T13:18:42.646Z,100664.19
2023-03-27T13:24:08.225Z,100670.16
2023-03-27T13:29:22.138Z,100668.97
2023-03-27T13:34:26.741Z,100677.81
2023-03-27T13:39:59.217Z,100688.59
2023-03-27T13:45:21.801Z,100698.69
2023-03-27T13:51:00.286Z,100736.50
2023-03-27T13:56:34.226Z,100734.13
2023-03-27T14:01:59.211Z,100726.25
2023-03-27T14:07:52.386Z,100730.50
2023-03-27T14:13:16.728Z,100721.50
2023-03-27T14:19:03.779Z,100720.75
2023-03-27T14:24:38.234Z,100705.56
2023-03-27T14:29:40.123Z,100705.69
2023-03-27T14:34:54.032Z,100702.63
2023-03-27T14:39:58.597Z,100705.09
2023-03-27T14:45:22.881Z,100700.91
2023-03-27T14:50:26.347Z,100725.31
2023-03-27T14:55:36.657Z,100731.94
2023-03-27T15:00:40.838Z,100745.78
2023-03-27T15:06:04.425Z,100767.38
2023-03-27T15:11:15.692Z,100768.56
2023-03-27T15:16:24.608Z,100771.88
2023-03-27T15:21:39.045Z,100778.81
2023-03-27T15:26:41.049Z,100776.19
2023-03-27T15:31:45.747Z,100770.97
2023-03-27T15:36:55.061Z,100765.06
2023-03-27T15:42:06.697Z,100769.63
2023-03-27T15:47:26.204Z,100766.56
2023-03-27T15:52:33.358Z,100748.56
2023-03-27T15:57:34.790Z,100764.06
2023-03-27T16:02:36.496Z,100770.22
2023-03-27T16:07:43.721Z,100779.34
2023-03-27T16:12:56.402Z,100798.75
2023-03-27T16:18:01.135Z,100792.09
2023-03-27T16:23:04.120Z,100794.94
2023-03-27T16:28:08.801Z,100793.06
2023-03-27T16:33:18.997Z,100792.41
2023-03-27T16:38:20.699Z,100810.84
2023-03-27T16:43:22.071Z,100811.44
2023-03-27T16:48:23.398Z,100815.97
2023-03-27T16:53:24.787Z,100834.44
2023-03-27T16:58:26.984Z,100847.38
2023-03-27T17:03:28.348Z,100846.78
2023-03-27T17:08:32.577Z,100859.16
2023-03-27T17:13:33.985Z,100884.91
2023-03-27T17:18:36.353Z,100884.63
2023-03-27T17:23:37.844Z,100891.28
2023-03-27T17:28:39.713Z,100889.22
2023-03-27T17:33:41.243Z,100906.38
2023-03-27T17:38:43.314Z,100914.34
2023-03-27T17:43:45.818Z,100923.25
2023-03-27T17:48:47.204Z,100923.97
2023-03-27T17:53:48.653Z,100936.06
2023-03-27T17:58:50.130Z,100946.66
2023-03-27T18:03:51.867Z,100953.53
2023-03-27T18:08:53.376Z,100960.84
2023-03-27T18:13:54.763Z,100965.59
2023-03-27T18:18:57.432Z,100968.13
2023-03-27T18:23:59.501Z,100963.63
2023-03-27T18:29:01.074Z,100974.84
2023-03-27T18:34:02.956Z,100989.06
2023-03-27T18:39:06.397Z,100993.66
2023-03-27T18:44:07.790Z,101000.63
2023-03-27T18:49:21.548Z,101001.88
2023-03-27T18:54:26.102Z,101003.97
2023-03-27T18:59:27.444Z,101009.63
2023-03-27T19:04:28.936Z,101019.50
2023-03-27T19:09:40.855Z,101024.94
2023-03-27T19:14:43.164Z,101026.38
2023-03-27T19:19:46.373Z,101018.53
2023-03-27T19:24:48.081Z,101025.38
2023-03-27T19:29:49.424Z,101023.66
2023-03-27T19:34:51.139Z,101033.13
2023-03-27T19:39:52.599Z,101038.91
2023-03-27T19:44:54.875Z,101037.91
2023-03-27T19:49:56.260Z,101040.34
2023-03-27T19:54:57.878Z,101051.19
2023-03-27T19:59:59.246Z,101059.38
2023-03-27T20:05:00.891Z,101061.06
2023-03-27T20:10:02.426Z,101078.19
2023-03-27T20:15:11.851Z,101075.00
2023-03-27T20:20:14.133Z,101069.91
2023-03-27T20:25:15.803Z,101069.59
2023-03-27T20:30:17.256Z,101083.84
2023-03-27T20:35:24.432Z,101068.94
2023-03-27T20:40:26.569Z,101082.16
2023-03-27T20:45:30.655Z,101081.78
2023-03-27T20:50:34.784Z,101088.63
2023-03-27T20:55:41.580Z,101086.44
2023-03-27T21:00:52.701Z,101088.13
2023-03-27T21:05:54.150Z,101085.81
2023-03-27T21:10:55.513Z,101084.47
2023-03-27T21:15:58.176Z,101086.97
2023-03-27T21:20:59.898Z,101092.31
2023-03-27T21:26:01.582Z,101107.28
2023-03-27T21:31:09.610Z,101109.47
2023-03-27T21:36:12.592Z,101100.22
2023-03-27T21:41:15.695Z,101103.88
2023-03-27T21:46:17.343Z,101112.00
2023-03-27T21:51:19.099Z,101110.19
2023-03-27T21:56:20.679Z,101121.44
2023-03-27T22:01:22.077Z,101114.06
2023-03-27T22:06:23.521Z,101114.91
2023-03-27T22:11:24.941Z,101113.34
2023-03-27T22:16:26.388Z,101109.25
2023-03-27T22:21:29.435Z,101127.44
2023-03-27T22:26:34.351Z,101138.38
2023-03-27T22:31:36.319Z,101137.16
2023-03-27T22:36:37.732Z,101146.25
2023-03-27T22:41:39.115Z,101157.53
2023-03-27T22:46:40.510Z,101163.22
2023-03-27T22:51:41.886Z,101163.59
2023-03-27T22:56:43.268Z,101181.78
2023-03-27T23:01:44.788Z,101178.72
2023-03-27T23:06:46.372Z,101184.19
2023-03-27T23:11:47.719Z,101181.78
2023-03-27T23:16:49.228Z,101183.94
2023-03-27T23:21:50.691Z,101187.31
2023-03-27T23:26:52.499Z,101197.25
2023-03-27T23:31:53.901Z,101205.63
2023-03-27T23:36:55.373Z,101209.25
2023-03-27T23:41:56.705Z,101217.38
2023-03-27T23:46:58.025Z,101210.94
2023-03-27T23:51:59.393Z,101221.59
2023-03-27T23:57:00.745Z,101219.53
